Time;durP1;ratioP1;P1;durP2;ratioP2;P2;SDS_P1;SDS_P2;PMS_P1;PMS_P2;Temp;Humidity;BMP_temperature;BMP_pressure;BME280_temperature;BME280_humidity;BME280_pressure;Samples;Min_cycle;Max_cycle;Signal;HPM_P1;HPM_P2
2022/09/22 00:01:18;;;;;;;9.20;2.88;;;9.20;99.90;;;;;;5001264;28;20416;-73
2022/09/22 00:03:49;;;;;;;9.90;3.10;;;9.10;99.90;;;;;;5014512;28;20049;-73
2022/09/22 00:06:17;;;;;;;9.27;2.90;;;9.10;99.90;;;;;;5024830;28;20107;-73
2022/09/22 00:08:47;;;;;;;7.65;3.00;;;9.20;99.90;;;;;;5016889;28;20038;-73
2022/09/22 00:11:17;;;;;;;8.40;2.60;;;9.30;99.90;;;;;;5022346;28;20050;-73
2022/09/22 00:13:49;;;;;;;9.63;3.30;;;9.00;99.90;;;;;;5017033;28;20114;-72
2022/09/22 00:16:14;;;;;;;7.60;2.95;;;9.00;99.90;;;;;;5006704;28;20042;-72
2022/09/22 00:18:41;;;;;;;8.95;3.25;;;9.00;99.90;;;;;;5004377;28;20408;-73
2022/09/22 00:21:11;;;;;;;8.23;3.50;;;9.00;99.90;;;;;;5022385;28;20088;-73
2022/09/22 00:23:37;;;;;;;10.45;3.55;;;9.00;99.90;;;;;;5028456;28;20545;-73
2022/09/22 00:26:05;;;;;;;10.27;3.70;;;9.00;99.90;;;;;;5010364;28;20049;-72
2022/09/22 00:28:32;;;;;;;10.43;3.13;;;9.10;99.90;;;;;;5007433;28;20042;-73
2022/09/22 00:31:05;;;;;;;8.98;3.25;;;9.10;99.90;;;;;;5012112;28;20064;-72
2022/09/22 00:33:31;;;;;;;8.45;3.20;;;9.10;99.90;;;;;;5028091;28;20045;-73
2022/09/22 00:36:01;;;;;;;8.45;3.35;;;9.10;99.90;;;;;;4994918;28;20099;-73
2022/09/22 00:38:27;;;;;;;8.95;3.13;;;9.10;99.90;;;;;;5024613;28;20037;-73
2022/09/22 00:40:53;;;;;;;10.23;3.70;;;9.10;99.90;;;;;;5018014;28;20048;-72
2022/09/22 00:43:22;;;;;;;10.57;3.78;;;9.10;99.90;;;;;;5027889;28;20045;-73
2022/09/22 00:45:55;;;;;;;8.65;3.80;;;9.10;99.90;;;;;;5007967;28;20052;-72
2022/09/22 00:48:24;;;;;;;10.63;3.53;;;9.00;99.90;;;;;;5028032;28;20041;-73
2022/09/22 00:50:51;;;;;;;8.40;3.40;;;9.00;99.90;;;;;;5018953;28;20522;-72
2022/09/22 00:53:19;;;;;;;9.70;3.92;;;9.00;99.90;;;;;;5024904;28;20386;-72
2022/09/22 00:55:53;;;;;;;9.68;3.65;;;9.20;99.90;;;;;;5009595;28;20124;-72
2022/09/22 00:58:25;;;;;;;12.32;4.22;;;9.00;99.90;;;;;;5022311;28;20526;-72
2022/09/22 01:00:51;;;;;;;9.23;3.90;;;8.90;99.90;;;;;;5020043;28;20112;-73
2022/09/22 01:03:21;;;;;;;10.65;3.60;;;9.60;99.90;;;;;;5017440;28;20049;-73
2022/09/22 01:05:49;;;;;;;9.77;3.47;;;8.80;99.90;;;;;;5024414;28;20042;-73
2022/09/22 01:08:17;;;;;;;9.95;4.00;;;8.90;99.90;;;;;;5022340;28;20046;-72
2022/09/22 01:10:44;;;;;;;9.18;3.50;;;9.20;99.90;;;;;;5020939;28;20072;-72
2022/09/22 01:13:16;;;;;;;11.45;3.58;;;8.90;99.90;;;;;;5011769;28;20037;-73
2022/09/22 01:16:04;;;;;;;9.50;3.53;;;8.90;99.90;;;;;;5010053;28;20048;-72
2022/09/22 01:18:52;;;;;;;10.07;3.42;;;8.90;99.90;;;;;;5016975;28;20140;-73
2022/09/22 01:21:20;;;;;;;15.45;3.88;;;8.90;99.90;;;;;;5024657;28;20049;-71
2022/09/22 01:24:05;;;;;;;8.95;3.40;;;8.80;99.90;;;;;;5026103;28;20392;-73
2022/09/22 01:27:00;;;;;;;8.60;3.42;;;8.90;99.90;;;;;;5024279;28;20048;-72
2022/09/22 01:29:34;;;;;;;8.25;3.25;;;8.80;99.90;;;;;;5022305;28;20034;-73
2022/09/22 01:32:06;;;;;;;9.65;3.22;;;8.80;99.90;;;;;;5019459;28;20045;-73
2022/09/22 01:34:55;;;;;;;8.85;3.58;;;8.80;99.90;;;;;;5008317;28;20037;-73
2022/09/22 01:37:40;;;;;;;8.55;3.13;;;8.80;99.90;;;;;;5018357;28;20102;-73
2022/09/22 01:40:20;;;;;;;8.38;3.50;;;8.80;99.90;;;;;;5018753;28;20040;-73
2022/09/22 01:42:56;;;;;;;9.05;3.60;;;8.80;99.90;;;;;;5023140;28;20033;-73
2022/09/22 01:45:28;;;;;;;8.25;3.28;;;8.90;99.90;;;;;;5022941;28;20491;-72
2022/09/22 01:48:08;;;;;;;8.27;3.42;;;8.90;99.90;;;;;;5027476;28;20033;-72
2022/09/22 01:50:42;;;;;;;9.18;3.90;;;9.70;99.90;;;;;;5021901;28;20453;-73
2022/09/22 01:53:13;;;;;;;8.30;3.20;;;8.80;99.90;;;;;;5015406;28;20538;-73
2022/09/22 01:55:43;;;;;;;9.18;3.10;;;8.90;99.90;;;;;;5027894;28;20111;-73
2022/09/22 01:58:20;;;;;;;8.50;3.28;;;8.90;99.90;;;;;;5025203;28;20068;-73
2022/09/22 02:00:53;;;;;;;12.93;3.60;;;8.90;99.90;;;;;;5018856;28;20057;-72
2022/09/22 02:03:24;;;;;;;9.07;3.15;;;8.90;99.90;;;;;;5020549;28;20111;-72
2022/09/22 02:05:59;;;;;;;7.85;3.10;;;8.90;99.90;;;;;;5022295;28;20042;-72
2022/09/22 02:08:51;;;;;;;10.63;3.40;;;8.40;99.90;;;;;;5012091;28;20045;-73
2022/09/22 02:11:17;;;;;;;8.38;3.20;;;8.90;99.90;;;;;;5021892;28;20042;-72
2022/09/22 02:13:46;;;;;;;8.98;3.22;;;8.90;99.90;;;;;;5018418;28;20044;-73
2022/09/22 02:16:14;;;;;;;8.38;3.10;;;8.90;99.90;;;;;;5009790;28;20043;-73
2022/09/22 02:19:15;;;;;;;9.73;3.60;;;8.90;99.90;;;;;;5029245;28;20377;-72
2022/09/22 02:21:45;;;;;;;7.82;3.03;;;8.80;99.90;;;;;;5015157;28;20569;-72
2022/09/22 02:24:31;;;;;;;9.73;3.45;;;9.00;99.90;;;;;;5004579;28;20801;-72
2022/09/22 02:26:59;;;;;;;9.13;3.30;;;8.80;99.90;;;;;;5000906;28;20034;-73
2022/09/22 02:29:30;;;;;;;9.20;2.90;;;8.80;99.90;;;;;;5023169;28;20103;-73
2022/09/22 02:31:57;;;;;;;8.20;2.92;;;8.70;99.90;;;;;;5022792;28;20117;-72
2022/09/22 02:34:23;;;;;;;9.30;3.00;;;8.70;99.90;;;;;;5021294;28;20050;-73
2022/09/22 02:37:12;;;;;;;8.52;2.92;;;8.60;99.90;;;;;;5022849;28;20037;-73
2022/09/22 02:39:59;;;;;;;8.00;3.00;;;8.60;99.90;;;;;;5017185;28;20037;-73
2022/09/22 02:42:31;;;;;;;8.35;2.90;;;8.20;99.90;;;;;;5021682;28;20042;-73
2022/09/22 02:45:18;;;;;;;10.15;3.05;;;8.60;99.90;;;;;;5018373;28;20459;-73
2022/09/22 02:47:56;;;;;;;7.00;2.40;;;8.50;99.90;;;;;;5014494;28;20076;-73
2022/09/22 02:50:25;;;;;;;7.60;2.58;;;9.40;99.90;;;;;;5027719;28;20436;-73
2022/09/22 02:52:55;;;;;;;6.75;2.35;;;8.40;99.90;;;;;;5020125;28;20038;-73
2022/09/22 02:55:20;;;;;;;6.90;2.20;;;8.40;99.90;;;;;;5020328;28;20049;-73
2022/09/22 02:57:46;;;;;;;6.43;2.20;;;8.40;99.90;;;;;;5030190;28;20052;-73
2022/09/22 03:00:12;;;;;;;6.22;2.00;;;8.30;99.90;;;;;;5029269;28;20125;-73
2022/09/22 03:02:38;;;;;;;5.95;2.03;;;8.30;99.90;;;;;;5013522;28;20128;-73
2022/09/22 03:05:04;;;;;;;6.53;2.25;;;8.20;99.90;;;;;;5019667;28;20129;-73
2022/09/22 03:07:30;;;;;;;6.35;2.50;;;;;;;;;;5028871;28;20132;-72
2022/09/22 03:09:56;;;;;;;7.07;2.53;;;8.20;99.90;;;;;;5030654;28;20093;-73
2022/09/22 03:12:22;;;;;;;7.95;2.38;;;8.10;99.90;;;;;;5029697;28;20041;-73
2022/09/22 03:14:49;;;;;;;5.18;2.15;;;8.10;99.90;;;;;;5020161;28;20049;-73
2022/09/22 03:17:15;;;;;;;6.95;2.60;;;8.10;99.90;;;;;;5021491;28;20041;-72
2022/09/22 03:19:40;;;;;;;7.25;2.53;;;8.00;99.90;;;;;;5017144;28;20096;-72
2022/09/22 03:22:06;;;;;;;7.30;2.58;;;8.00;99.90;;;;;;5009953;28;20037;-72
2022/09/22 03:24:32;;;;;;;6.22;2.50;;;8.00;99.90;;;;;;5012858;28;20045;-73
2022/09/22 03:26:58;;;;;;;5.93;2.28;;;7.90;99.90;;;;;;5016820;28;20120;-73
2022/09/22 03:29:23;;;;;;;6.00;2.40;;;7.90;99.90;;;;;;5011462;28;20049;-72
2022/09/22 03:31:49;;;;;;;6.70;2.33;;;7.90;99.90;;;;;;5014021;28;20432;-73
2022/09/22 03:34:15;;;;;;;6.78;2.40;;;6.80;99.90;;;;;;5001853;28;20408;-73
2022/09/22 03:36:41;;;;;;;5.88;2.50;;;7.80;99.90;;;;;;5027098;28;20041;-73
2022/09/22 03:39:07;;;;;;;6.32;2.38;;;7.80;99.90;;;;;;5010948;28;20565;-73
2022/09/22 03:41:33;;;;;;;5.90;2.40;;;7.80;99.90;;;;;;5027351;28;20525;-73
2022/09/22 03:43:59;;;;;;;6.30;2.28;;;7.70;99.90;;;;;;5002705;28;20048;-73
2022/09/22 03:46:25;;;;;;;7.78;2.65;;;7.80;99.90;;;;;;5027685;28;20041;-73
2022/09/22 03:48:51;;;;;;;8.98;2.58;;;7.70;99.90;;;;;;5027847;28;20116;-72
2022/09/22 03:51:18;;;;;;;6.68;2.40;;;7.70;99.90;;;;;;5020094;28;20173;-72
2022/09/22 03:53:45;;;;;;;5.95;2.30;;;7.70;99.90;;;;;;5014390;28;20038;-72
2022/09/22 03:56:13;;;;;;;7.40;2.40;;;7.60;99.90;;;;;;5021613;28;20698;-72
2022/09/22 03:58:39;;;;;;;6.32;2.53;;;7.60;99.90;;;;;;5006910;28;20108;-72
2022/09/22 04:01:07;;;;;;;7.05;2.50;;;8.30;99.90;;;;;;5022476;28;20038;-73
2022/09/22 04:03:33;;;;;;;7.85;2.47;;;8.00;99.90;;;;;;4992464;28;20069;-73
2022/09/22 04:06:00;;;;;;;6.85;2.38;;;7.70;99.90;;;;;;5023276;28;20064;-72
2022/09/22 04:08:26;;;;;;;7.63;2.25;;;7.60;99.90;;;;;;5029812;28;20585;-72
2022/09/22 04:10:51;;;;;;;5.93;2.33;;;7.60;99.90;;;;;;5029713;28;20116;-72
2022/09/22 04:13:17;;;;;;;7.03;2.40;;;7.50;99.90;;;;;;5027745;28;20683;-72
2022/09/22 04:15:45;;;;;;;6.75;2.40;;;7.50;99.90;;;;;;5020582;28;20046;-72
2022/09/22 04:18:14;;;;;;;6.18;2.17;;;8.00;99.90;;;;;;5026265;28;20037;-73
2022/09/22 04:20:44;;;;;;;6.43;2.20;;;8.10;99.90;;;;;;5029786;28;20116;-73
2022/09/22 04:23:15;;;;;;;6.65;2.35;;;7.40;99.90;;;;;;5029273;28;20168;-72
2022/09/22 04:25:41;;;;;;;6.22;2.13;;;7.40;99.90;;;;;;5024606;28;20087;-73
2022/09/22 04:28:07;;;;;;;6.80;2.20;;;7.40;99.90;;;;;;5030307;28;20104;-72
2022/09/22 04:30:33;;;;;;;8.93;2.70;;;7.40;99.90;;;;;;5029374;28;20115;-72
2022/09/22 04:32:59;;;;;;;7.03;2.22;;;7.40;99.90;;;;;;5028683;28;20044;-72
2022/09/22 04:35:27;;;;;;;7.10;2.40;;;7.30;99.90;;;;;;5020975;28;20034;-72
2022/09/22 04:37:54;;;;;;;7.90;2.22;;;7.30;99.90;;;;;;5028833;28;20037;-73
2022/09/22 04:40:21;;;;;;;5.75;2.10;;;7.30;99.90;;;;;;5030228;28;20053;-73
2022/09/22 04:42:46;;;;;;;8.40;2.80;;;7.30;99.90;;;;;;5028418;28;20488;-73
2022/09/22 04:45:13;;;;;;;8.93;2.90;;;7.30;99.90;;;;;;5022412;28;20053;-73
2022/09/22 04:47:40;;;;;;;7.72;2.50;;;7.30;99.90;;;;;;5018641;28;20107;-72
2022/09/22 04:50:06;;;;;;;8.00;2.50;;;7.30;99.90;;;;;;5025570;28;20495;-73
2022/09/22 04:52:31;;;;;;;7.45;2.75;;;7.20;99.90;;;;;;5011944;28;20033;-73
2022/09/22 04:54:57;;;;;;;7.15;2.72;;;7.30;99.90;;;;;;5028662;28;20048;-72
2022/09/22 04:57:23;;;;;;;6.30;2.47;;;7.30;99.90;;;;;;5027875;28;20115;-72
2022/09/22 04:59:49;;;;;;;7.72;2.80;;;7.20;99.90;;;;;;5028777;28;20396;-72
2022/09/22 05:02:14;;;;;;;6.72;2.67;;;7.20;99.90;;;;;;4980678;28;20100;-72
2022/09/22 05:04:40;;;;;;;7.15;2.63;;;7.20;99.90;;;;;;5022279;28;20036;-72
2022/09/22 05:07:06;;;;;;;6.63;2.30;;;7.20;99.90;;;;;;5005935;28;20081;-72
2022/09/22 05:09:32;;;;;;;8.27;3.00;;;7.40;99.90;;;;;;5027624;28;20041;-72
2022/09/22 05:11:59;;;;;;;8.55;2.63;;;7.10;99.90;;;;;;5001994;28;20037;-73
2022/09/22 05:14:26;;;;;;;7.50;2.80;;;7.10;99.90;;;;;;5030167;28;20044;-73
2022/09/22 05:16:52;;;;;;;7.40;2.90;;;7.10;99.90;;;;;;5028513;28;20049;-74
2022/09/22 05:19:17;;;;;;;7.88;3.15;;;7.10;99.90;;;;;;5026232;28;20515;-74
2022/09/22 05:21:43;;;;;;;9.48;3.38;;;7.10;99.90;;;;;;5011461;28;20216;-74
2022/09/22 05:24:09;;;;;;;7.45;2.88;;;7.10;99.90;;;;;;5029814;28;20033;-72
2022/09/22 05:26:34;;;;;;;6.35;2.45;;;7.10;99.90;;;;;;5029365;28;20080;-72
2022/09/22 05:29:00;;;;;;;7.22;2.83;;;7.10;99.90;;;;;;5026129;28;20621;-72
2022/09/22 05:31:26;;;;;;;7.20;2.88;;;7.10;99.90;;;;;;4993246;28;20096;-72
2022/09/22 05:33:52;;;;;;;7.22;2.92;;;7.20;99.90;;;;;;5010990;28;20056;-72
2022/09/22 05:36:17;;;;;;;8.50;2.90;;;7.10;99.90;;;;;;4995726;28;20057;-72
2022/09/22 05:38:43;;;;;;;7.43;2.83;;;6.80;99.90;;;;;;5025866;28;20499;-72
2022/09/22 05:41:09;;;;;;;8.90;3.17;;;7.20;99.90;;;;;;5020409;28;20033;-71
2022/09/22 05:43:34;;;;;;;8.73;2.92;;;7.20;99.90;;;;;;5016887;28;20508;-72
2022/09/22 05:46:00;;;;;;;7.88;2.97;;;7.20;99.90;;;;;;5016486;28;20082;-71
2022/09/22 05:48:26;;;;;;;8.23;2.97;;;7.20;99.90;;;;;;5002267;28;20030;-72
2022/09/22 05:50:52;;;;;;;9.27;3.13;;;7.30;99.90;;;;;;5025048;28;20034;-72
2022/09/22 05:53:17;;;;;;;8.32;2.90;;;7.30;99.90;;;;;;5014805;28;20040;-73
2022/09/22 05:55:43;;;;;;;8.65;3.00;;;7.30;99.90;;;;;;5010528;28;20499;-72
2022/09/22 05:58:10;;;;;;;9.18;3.15;;;7.40;99.90;;;;;;5011523;28;20099;-72
2022/09/22 06:00:37;;;;;;;9.55;3.67;;;7.30;99.90;;;;;;5011594;28;20052;-74
2022/09/22 06:03:04;;;;;;;8.73;3.30;;;7.40;99.90;;;;;;5021610;28;20504;-73
2022/09/22 06:05:32;;;;;;;8.15;3.30;;;7.40;99.90;;;;;;5042409;28;20619;-73
2022/09/22 06:08:02;;;;;;;9.05;3.58;;;7.50;99.90;;;;;;5027741;28;20045;-73
2022/09/22 06:10:29;;;;;;;12.13;3.97;;;7.60;99.90;;;;;;5029552;28;20095;-72
2022/09/22 06:13:03;;;;;;;10.63;3.90;;;7.60;99.90;;;;;;5020686;28;20120;-72
2022/09/22 06:15:31;;;;;;;9.07;4.05;;;7.80;99.90;;;;;;5020953;28;20041;-73
2022/09/22 06:17:57;;;;;;;9.27;4.03;;;7.80;99.90;;;;;;5022306;28;20074;-72
2022/09/22 06:20:23;;;;;;;12.45;4.30;;;7.90;99.90;;;;;;4997278;28;20096;-73
2022/09/22 06:22:49;;;;;;;10.52;4.00;;;8.00;99.90;;;;;;5030754;28;20033;-72
2022/09/22 06:25:15;;;;;;;11.35;4.60;;;8.00;99.90;;;;;;5031668;28;20038;-74
2022/09/22 06:27:42;;;;;;;11.25;4.88;;;8.10;99.90;;;;;;5032744;28;20117;-73
2022/09/22 06:30:10;;;;;;;11.05;5.30;;;8.50;99.90;;;;;;5032950;28;20029;-72
2022/09/22 06:32:39;;;;;;;19.27;5.97;;;8.30;99.90;;;;;;5032536;28;20037;-72
2022/09/22 06:35:08;;;;;;;11.30;4.78;;;8.40;99.90;;;;;;4995700;28;20045;-73
2022/09/22 06:37:37;;;;;;;12.88;5.43;;;8.50;99.90;;;;;;5006891;28;20049;-73
2022/09/22 06:40:06;;;;;;;11.45;4.97;;;8.60;99.90;;;;;;5031499;28;20053;-73
2022/09/22 06:42:33;;;;;;;11.75;5.70;;;8.70;99.90;;;;;;5014841;28;20381;-73
2022/09/22 06:44:59;;;;;;;11.00;5.57;;;8.80;99.90;;;;;;5023126;28;20295;-73
2022/09/22 06:47:25;;;;;;;11.73;5.90;;;8.90;99.90;;;;;;5005339;28;20490;-73
2022/09/22 06:49:51;;;;;;;11.95;6.43;;;9.00;99.90;;;;;;5010711;28;20077;-72
2022/09/22 06:52:17;;;;;;;14.32;6.38;;;9.00;99.90;;;;;;5014916;28;20099;-72
2022/09/22 06:54:42;;;;;;;11.57;6.55;;;9.10;99.90;;;;;;5023590;28;20454;-72
2022/09/22 06:57:09;;;;;;;13.20;6.72;;;9.20;99.90;;;;;;5018347;28;20045;-73
2022/09/22 06:59:37;;;;;;;13.70;6.30;;;9.30;99.90;;;;;;4998569;28;20073;-72
2022/09/22 07:02:06;;;;;;;12.68;6.55;;;9.40;99.90;;;;;;5028961;28;20384;-73
2022/09/22 07:04:33;;;;;;;13.55;6.68;;;9.50;99.90;;;;;;5030055;28;20053;-73
2022/09/22 07:06:59;;;;;;;11.80;6.70;;;9.70;99.90;;;;;;5028704;28;20063;-73
2022/09/22 07:09:25;;;;;;;12.65;6.32;;;9.70;99.90;;;;;;5030960;28;20050;-73
2022/09/22 07:11:52;;;;;;;13.18;6.90;;;9.80;99.90;;;;;;5032021;28;20034;-73
2022/09/22 07:14:21;;;;;;;12.07;6.60;;;9.90;99.90;;;;;;5031147;28;20487;-73
2022/09/22 07:16:47;;;;;;;14.90;6.85;;;10.00;99.90;;;;;;5028888;28;20050;-73
2022/09/22 07:19:14;;;;;;;12.57;6.40;;;10.10;99.90;;;;;;5013932;28;20461;-73
2022/09/22 07:21:40;;;;;;;11.52;6.38;;;10.10;99.90;;;;;;5013930;28;20052;-73
2022/09/22 07:24:09;;;;;;;10.90;6.05;;;10.30;99.90;;;;;;5031040;28;20049;-74
2022/09/22 07:26:37;;;;;;;11.65;5.68;;;10.30;99.90;;;;;;5011690;28;20046;-73
2022/09/22 07:29:06;;;;;;;11.60;5.88;;;10.40;99.90;;;;;;5026645;28;20042;-73
2022/09/22 07:31:36;;;;;;;12.73;5.90;;;10.50;99.90;;;;;;5028023;28;20092;-73
2022/09/22 07:34:02;;;;;;;10.93;5.80;;;10.60;99.90;;;;;;5030404;28;20037;-73
2022/09/22 07:36:30;;;;;;;10.77;5.47;;;10.70;99.90;;;;;;5029004;28;20045;-74
2022/09/22 07:39:01;;;;;;;12.65;6.32;;;10.80;99.90;;;;;;5023171;28;20052;-74
2022/09/22 07:41:29;;;;;;;13.88;6.20;;;10.90;99.90;;;;;;5015557;28;20124;-72
2022/09/22 07:45:11;;;;;;;13.18;6.68;;;11.00;99.90;;;;;;5010600;28;20095;-74
2022/09/22 07:46:43;;;;;;;14.05;6.50;;;11.10;99.90;;;;;;5016586;28;20058;-74
2022/09/22 07:49:09;;;;;;;13.57;6.45;;;11.10;99.90;;;;;;5010235;28;20050;-74
2022/09/22 07:51:37;;;;;;;11.75;5.97;;;11.20;99.90;;;;;;5031100;28;20030;-74
2022/09/22 07:54:06;;;;;;;14.10;5.95;;;11.30;99.90;;;;;;5013572;28;20172;-73
2022/09/22 07:56:33;;;;;;;14.00;6.35;;;11.40;99.90;;;;;;5030123;28;20133;-73
2022/09/22 07:59:03;;;;;;;12.43;5.88;;;11.50;99.90;;;;;;5023121;28;20108;-73
2022/09/22 08:01:32;;;;;;;13.13;5.68;;;11.60;99.90;;;;;;5000261;28;20049;-74
2022/09/22 08:03:59;;;;;;;13.23;5.65;;;11.70;99.90;;;;;;5029731;28;20041;-74
2022/09/22 08:06:26;;;;;;;11.80;5.97;;;11.80;99.90;;;;;;4996700;28;20046;-74
2022/09/22 08:08:55;;;;;;;14.63;5.75;;;11.90;99.90;;;;;;5025556;28;20130;-73
2022/09/22 08:11:27;;;;;;;10.77;5.80;;;12.00;99.90;;;;;;5027767;28;20427;-73
2022/09/22 08:14:01;;;;;;;10.55;5.78;;;12.10;99.90;;;;;;5030032;28;20071;-73
2022/09/22 08:16:29;;;;;;;10.80;5.50;;;12.20;99.90;;;;;;5029465;28;20052;-73
2022/09/22 08:18:57;;;;;;;11.65;5.22;;;12.40;99.90;;;;;;5028567;28;20033;-73
2022/09/22 08:21:30;;;;;;;10.73;5.05;;;12.50;99.90;;;;;;5028348;28;20053;-73
2022/09/22 08:23:56;;;;;;;13.30;5.85;;;12.60;99.90;;;;;;5029489;28;20042;-74
2022/09/22 08:26:22;;;;;;;12.57;5.30;;;12.70;99.90;;;;;;5029076;28;20496;-74
2022/09/22 08:28:52;;;;;;;11.10;5.20;;;12.80;99.90;;;;;;5012017;28;20043;-73
2022/09/22 08:31:19;;;;;;;11.38;5.63;;;12.90;99.90;;;;;;5027662;28;20042;-74
2022/09/22 08:33:50;;;;;;;10.95;5.00;;;12.90;99.90;;;;;;5013123;28;20033;-74
2022/09/22 08:36:17;;;;;;;13.57;5.03;;;13.00;99.90;;;;;;5030322;28;20037;-73
2022/09/22 08:38:46;;;;;;;9.70;4.60;;;13.10;99.90;;;;;;5029642;28;20080;-72
2022/09/22 08:41:43;;;;;;;14.05;4.90;;;13.20;99.90;;;;;;5025793;28;20443;-74
2022/09/22 08:44:11;;;;;;;10.98;4.78;;;13.30;99.90;;;;;;4990049;28;20056;-74
2022/09/22 08:46:45;;;;;;;9.32;4.50;;;13.30;99.90;;;;;;5028785;28;20092;-73
2022/09/22 08:52:29;;;;;;;11.45;5.10;;;13.60;99.90;;;;;;5023280;28;20523;-74
2022/09/22 08:54:59;;;;;;;11.75;4.55;;;13.70;99.90;;;;;;5012730;28;20463;-74
2022/09/22 08:57:39;;;;;;;10.85;4.82;;;13.80;99.90;;;;;;5028480;28;20041;-74
2022/09/22 09:00:13;;;;;;;10.43;4.55;;;13.90;99.90;;;;;;5012187;28;20136;-73
2022/09/22 09:03:15;;;;;;;10.45;4.82;;;14.00;99.90;;;;;;5020751;28;20565;-74
2022/09/22 09:06:11;;;;;;;10.10;4.20;;;14.10;99.90;;;;;;5024015;28;20034;-73
2022/09/22 09:09:09;;;;;;;10.20;4.22;;;14.20;99.90;;;;;;5022625;28;20046;-73
2022/09/22 09:11:59;;;;;;;9.73;3.90;;;14.30;99.90;;;;;;5014743;28;20054;-73
2022/09/22 09:14:29;;;;;;;11.10;4.05;;;14.30;99.90;;;;;;5028172;28;20458;-73
2022/09/22 09:17:07;;;;;;;12.10;4.00;;;14.40;99.90;;;;;;4999933;28;20049;-73
2022/09/22 09:19:36;;;;;;;9.60;3.67;;;14.50;99.90;;;;;;5030154;28;20133;-73
2022/09/22 09:22:11;;;;;;;9.57;3.40;;;14.60;99.90;;;;;;5012031;28;20041;-73
2022/09/22 09:24:45;;;;;;;12.40;4.10;;;14.60;99.90;;;;;;5028364;28;20041;-73
2022/09/22 09:27:14;;;;;;;10.65;3.10;;;14.70;99.90;;;;;;5020118;28;20264;-73
2022/09/22 09:29:50;;;;;;;10.23;3.10;;;14.70;99.90;;;;;;5028746;28;20038;-73
2022/09/22 09:32:38;;;;;;;11.13;3.33;;;14.80;99.90;;;;;;5029591;28;20073;-74
2022/09/22 09:35:08;;;;;;;9.55;3.05;;;14.90;99.90;;;;;;5027233;28;20322;-74
2022/09/22 09:37:34;;;;;;;9.82;3.40;;;14.90;99.90;;;;;;5024234;28;20124;-73
2022/09/22 09:40:03;;;;;;;9.25;2.63;;;15.00;99.90;;;;;;5029424;28;20128;-73
2022/09/22 09:42:33;;;;;;;11.57;3.30;;;15.10;99.90;;;;;;5029336;28;20045;-73
2022/09/22 09:45:01;;;;;;;8.40;2.65;;;15.10;99.90;;;;;;5021340;28;20568;-73
2022/09/22 09:47:52;;;;;;;7.07;2.70;;;15.20;99.90;;;;;;5016857;28;20041;-73
2022/09/22 09:50:18;;;;;;;8.55;2.70;;;15.30;99.90;;;;;;5029893;28;20033;-73
2022/09/22 09:52:44;;;;;;;8.20;2.80;;;15.40;99.90;;;;;;5024688;28;20485;-72
2022/09/22 09:55:24;;;;;;;8.27;2.83;;;15.40;99.90;;;;;;5028727;28;20083;-74
2022/09/22 09:58:10;;;;;;;8.98;3.22;;;15.50;99.90;;;;;;5027834;28;20041;-73
2022/09/22 10:01:08;;;;;;;10.35;3.15;;;15.50;99.90;;;;;;5021208;28;20129;-72
2022/09/22 10:03:40;;;;;;;7.65;2.88;;;15.70;99.90;;;;;;5024623;28;20389;-72
2022/09/22 10:06:09;;;;;;;11.05;2.60;;;15.70;99.90;;;;;;5026715;28;20038;-73
2022/09/22 10:08:43;;;;;;;7.22;2.53;;;15.70;99.90;;;;;;5008355;28;20060;-73
2022/09/22 10:11:11;;;;;;;9.07;2.55;;;15.80;99.90;;;;;;5031637;28;20076;-73
2022/09/22 10:13:39;;;;;;;6.55;2.45;;;15.90;99.90;;;;;;5031862;28;20049;-72
2022/09/22 10:16:18;;;;;;;8.40;2.55;;;15.90;99.90;;;;;;5032175;28;20045;-72
2022/09/22 10:18:44;;;;;;;10.07;2.65;;;16.00;99.90;;;;;;5024075;28;20099;-73
2022/09/22 10:21:23;;;;;;;13.18;2.70;;;16.10;99.90;;;;;;5028645;28;20042;-73
2022/09/22 10:23:57;;;;;;;8.68;3.25;;;16.10;99.90;;;;;;5003005;28;20116;-73
2022/09/22 10:26:30;;;;;;;9.10;2.78;;;16.20;99.90;;;;;;5031408;28;20046;-73
2022/09/22 10:29:11;;;;;;;8.70;2.90;;;16.30;99.90;;;;;;5019912;28;20484;-72
2022/09/22 10:31:42;;;;;;;8.68;3.03;;;16.40;99.90;;;;;;5031303;28;20045;-73
2022/09/22 10:34:32;;;;;;;10.98;3.45;;;16.40;99.90;;;;;;5032035;28;20295;-73
2022/09/22 10:36:59;;;;;;;12.02;3.30;;;16.50;99.90;;;;;;5031486;28;20045;-74
2022/09/22 10:39:47;;;;;;;7.97;2.60;;;16.60;99.90;;;;;;5026960;28;20038;-73
2022/09/22 10:42:37;;;;;;;8.18;2.60;;;16.60;99.90;;;;;;5020557;28;20475;-74
2022/09/22 10:45:14;;;;;;;7.50;2.50;;;16.70;99.90;;;;;;5023246;28;20056;-73
2022/09/22 10:48:09;;;;;;;8.85;2.83;;;16.80;99.90;;;;;;5030289;28;20053;-73
2022/09/22 10:51:20;;;;;;;8.50;2.70;;;16.90;99.90;;;;;;5027396;28;20092;-73
2022/09/22 10:54:10;;;;;;;7.20;2.50;;;16.90;99.90;;;;;;5004597;28;20496;-73
2022/09/22 10:56:42;;;;;;;8.35;2.88;;;17.00;99.90;;;;;;5030518;28;20056;-73
2022/09/22 10:59:31;;;;;;;10.35;2.72;;;17.10;99.90;;;;;;5024786;28;20058;-73
2022/09/22 11:02:18;;;;;;;8.07;2.45;;;17.10;99.90;;;;;;5024313;28;20389;-73
2022/09/22 11:14:44;;;;;;;8.05;2.60;;;17.10;99.90;;;;;;4954244;28;20078;-75
2022/09/22 11:17:46;;;;;;;6.53;2.38;;;17.20;99.90;;;;;;5021542;28;20393;-73
2022/09/22 11:20:24;;;;;;;9.13;2.67;;;17.30;99.90;;;;;;5018738;28;20060;-73
2022/09/22 11:23:29;;;;;;;9.80;3.03;;;17.30;99.90;;;;;;5028189;28;20064;-73
2022/09/22 11:26:07;;;;;;;9.45;2.65;;;17.20;99.90;;;;;;5021267;28;20049;-73
2022/09/22 11:28:59;;;;;;;8.05;2.70;;;17.20;99.90;;;;;;5032267;28;20052;-73
2022/09/22 11:31:46;;;;;;;9.32;2.58;;;17.40;99.90;;;;;;5024454;28;20333;-74
2022/09/22 11:34:29;;;;;;;7.10;2.40;;;17.60;99.90;;;;;;5029414;28;20489;-73
2022/09/22 11:37:25;;;;;;;7.85;2.35;;;17.50;99.90;;;;;;5030094;28;20049;-73
2022/09/22 11:40:00;;;;;;;8.15;2.70;;;17.40;99.90;;;;;;5030280;28;20104;-72
2022/09/22 11:42:42;;;;;;;8.68;2.60;;;17.50;99.90;;;;;;5015814;28;20046;-73
2022/09/22 11:45:50;;;;;;;8.43;2.85;;;17.60;99.90;;;;;;5024977;28;20057;-73
2022/09/22 11:48:18;;;;;;;7.47;2.60;;;17.90;99.90;;;;;;5030256;28;20044;-71
2022/09/22 11:50:56;;;;;;;8.07;2.30;;;18.00;99.90;;;;;;5031578;28;20399;-73
2022/09/22 11:53:35;;;;;;;9.23;2.80;;;17.90;99.90;;;;;;5020865;28;20102;-74
2022/09/22 11:56:32;;;;;;;9.05;2.60;;;17.70;99.90;;;;;;5030104;28;20049;-71
2022/09/22 11:59:03;;;;;;;9.95;2.72;;;17.60;99.90;;;;;;5029996;28;20088;-73
2022/09/22 12:01:36;;;;;;;10.63;3.03;;;17.40;99.90;;;;;;5029604;28;20095;-73
2022/09/22 12:04:21;;;;;;;10.20;3.03;;;17.30;99.90;;;;;;5024955;28;20038;-72
2022/09/22 12:06:54;;;;;;;9.15;2.80;;;17.40;99.90;;;;;;5013176;28;20061;-73
2022/09/22 12:09:36;;;;;;;12.38;2.97;;;17.70;99.90;;;;;;5030102;28;20342;-73
2022/09/22 12:12:05;;;;;;;9.18;3.08;;;18.00;99.90;;;;;;5029436;28;20038;-74
2022/09/22 12:14:31;;;;;;;9.13;3.30;;;18.30;99.90;;;;;;5011681;28;20057;-73
2022/09/22 12:17:10;;;;;;;10.25;3.38;;;18.20;99.90;;;;;;5028955;28;20041;-72
2022/09/22 12:19:52;;;;;;;9.25;3.58;;;18.20;99.90;;;;;;5017182;28;20041;-73
2022/09/22 12:22:36;;;;;;;9.15;3.38;;;18.20;99.90;;;;;;5029637;28;20080;-72
2022/09/22 12:25:02;;;;;;;10.88;3.60;;;18.30;99.90;;;;;;5027254;28;20037;-72
2022/09/22 12:27:32;;;;;;;8.60;3.00;;;18.30;99.90;;;;;;5026522;28;20049;-73
2022/09/22 12:30:01;;;;;;;12.57;3.63;;;18.40;99.90;;;;;;5012951;28;20044;-72
2022/09/22 12:32:36;;;;;;;8.70;3.40;;;18.20;99.90;;;;;;5030528;28;20030;-74
2022/09/22 12:35:02;;;;;;;9.40;3.25;;;18.00;99.90;;;;;;5017860;28;20045;-72
2022/09/22 12:37:35;;;;;;;10.40;3.20;;;18.00;99.90;;;;;;5025125;28;20112;-73
2022/09/22 12:40:29;;;;;;;8.68;3.10;;;17.80;99.90;;;;;;5021483;28;20045;-73
2022/09/22 12:42:58;;;;;;;8.57;3.20;;;17.90;99.90;;;;;;5029353;28;20045;-73
2022/09/22 12:45:24;;;;;;;9.80;3.40;;;18.10;99.90;;;;;;5009950;28;20053;-72
2022/09/22 12:47:52;;;;;;;10.68;3.55;;;18.20;99.90;;;;;;5027287;28;20503;-72
2022/09/22 12:50:38;;;;;;;10.70;3.40;;;18.30;99.90;;;;;;5029002;28;20500;-74
2022/09/22 12:53:28;;;;;;;11.65;3.80;;;18.20;99.90;;;;;;5028667;28;20048;-73
2022/09/22 12:55:57;;;;;;;10.45;3.97;;;18.00;99.90;;;;;;5026634;28;20037;-73
2022/09/22 12:58:29;;;;;;;9.38;3.30;;;17.70;99.90;;;;;;5028059;28;20048;-73
2022/09/22 13:01:15;;;;;;;8.52;2.85;;;17.60;99.90;;;;;;5028496;28;20118;-72
2022/09/22 13:03:49;;;;;;;8.07;3.10;;;17.50;99.90;;;;;;5012510;28;20430;-73
2022/09/22 13:06:21;;;;;;;11.05;3.50;;;17.50;99.90;;;;;;5004415;28;20488;-74
2022/09/22 13:08:52;;;;;;;8.55;3.20;;;17.70;99.90;;;;;;5026229;28;20041;-75
2022/09/22 13:11:58;;;;;;;9.75;3.40;;;17.90;99.90;;;;;;5012203;28;20480;-73
2022/09/22 13:14:58;;;;;;;9.23;3.03;;;18.20;99.90;;;;;;5030009;28;20108;-72
2022/09/22 13:17:44;;;;;;;7.97;2.65;;;18.20;99.90;;;;;;5027157;28;20069;-72
2022/09/22 13:20:16;;;;;;;9.07;3.13;;;18.30;99.90;;;;;;5011950;28;20041;-73
2022/09/22 13:22:42;;;;;;;9.63;2.97;;;18.30;99.90;;;;;;5030108;28;20096;-73
2022/09/22 13:25:34;;;;;;;9.68;2.70;;;18.40;99.90;;;;;;5028414;28;20328;-71
2022/09/22 13:28:31;;;;;;;9.95;3.05;;;18.60;99.90;;;;;;5006908;28;21258;-75
2022/09/22 13:31:13;;;;;;;10.88;3.13;;;18.70;99.90;;;;;;5020845;28;20061;-74